createdAt,value
2019-01-21T00:01:46.304Z,68.60
2019-01-21T00:04:33.723Z,68.40
2019-01-21T00:07:14.166Z,70.60
2019-01-21T00:10:01.701Z,71.00
2019-01-21T00:12:42.611Z,70.90
2019-01-21T00:15:30.062Z,70.80
2019-01-21T00:18:10.418Z,71.20
2019-01-21T00:20:57.940Z,70.20
2019-01-21T00:23:38.906Z,72.10
2019-01-21T00:26:26.306Z,71.90
2019-01-21T00:29:06.933Z,69.10
2019-01-21T00:34:34.349Z,70.20
2019-01-21T00:37:21.766Z,71.10
2019-01-21T00:40:01.934Z,69.00
2019-01-21T00:42:50.375Z,68.90
2019-01-21T00:48:11.282Z,69.20
2019-01-21T00:50:58.726Z,68.90
2019-01-21T00:53:39.042Z,70.10
2019-01-21T00:56:26.652Z,70.60
2019-01-21T00:59:07.651Z,69.20
2019-01-21T01:01:55.244Z,68.60
2019-01-21T01:04:35.610Z,69.60
2019-01-21T01:10:04.151Z,71.40
2019-01-21T01:12:51.724Z,70.30
2019-01-21T01:15:32.074Z,70.20
2019-01-21T01:18:13.175Z,71.20
2019-01-21T01:29:01.172Z,71.70
2019-01-21T01:34:29.323Z,72.90
2019-01-21T01:39:57.095Z,74.10
2019-01-21T01:56:37.914Z,75.50
2019-01-21T02:01:59.251Z,76.10
2019-01-21T02:04:47.010Z,76.20
2019-01-21T02:07:27.248Z,76.30
2019-01-21T02:10:07.459Z,75.70
2019-01-21T02:12:48.373Z,77.20
2019-01-21T02:15:35.765Z,77.40
2019-01-21T02:20:57.715Z,78.60
2019-01-21T02:23:38.071Z,78.50
2019-01-21T02:30:46.497Z,78.80
2019-01-21T02:33:52.524Z,78.10
2019-01-21T02:36:53.126Z,80.60
2019-01-21T02:43:43.730Z,80.10
2019-01-21T02:50:28.934Z,79.50
2019-01-21T02:53:51.340Z,81.30
2019-01-21T02:56:50.945Z,79.90
2019-01-21T02:59:51.403Z,82.40
2019-01-21T03:02:51.932Z,80.20
2019-01-21T03:06:18.233Z,80.40
2019-01-21T03:09:18.418Z,80.60
2019-01-21T03:12:44.762Z,80.40
2019-01-21T03:15:44.781Z,80.70
2019-01-21T03:19:11.208Z,80.60
2019-01-21T03:22:11.400Z,80.30
2019-01-21T03:25:37.774Z,80.90
2019-01-21T03:28:27.151Z,81.00
2019-01-21T03:32:01.491Z,82.00
2019-01-21T03:35:01.378Z,79.80
2019-01-21T03:37:52.198Z,79.80
2019-01-21T03:41:22.248Z,79.50
2019-01-21T03:44:48.656Z,81.30
2019-01-21T03:50:35.490Z,79.80
2019-01-21T03:54:16.793Z,80.00
2019-01-21T03:57:03.108Z,79.70
2019-01-21T04:00:03.380Z,79.60
2019-01-21T04:10:23.376Z,80.90
2019-01-21T04:13:26.993Z,81.20
2019-01-21T04:20:33.425Z,82.20
2019-01-21T04:23:42.079Z,82.20
2019-01-21T04:27:08.516Z,83.70
2019-01-21T04:30:11.519Z,82.30
2019-01-21T04:33:37.864Z,81.90
2019-01-21T04:39:37.059Z,81.40
2019-01-21T04:43:03.415Z,81.80
2019-01-21T04:46:03.625Z,84.00
2019-01-21T04:49:24.581Z,84.20
2019-01-21T04:56:41.123Z,80.60
2019-01-21T04:59:40.979Z,81.00
2019-01-21T05:06:39.032Z,81.20
2019-01-21T05:17:25.124Z,82.00
2019-01-21T05:20:25.588Z,82.00
2019-01-21T05:23:51.924Z,81.40
2019-01-21T05:26:51.449Z,81.90
2019-01-21T05:30:17.771Z,81.80
2019-01-21T05:33:08.442Z,82.40
2019-01-21T05:36:18.560Z,82.30
2019-01-21T05:46:03.526Z,82.20
2019-01-21T05:49:30.104Z,82.50
2019-01-21T05:52:29.845Z,84.60
2019-01-21T05:55:56.554Z,82.00
2019-01-21T05:58:56.372Z,82.20
2019-01-21T06:02:22.703Z,81.60
2019-01-21T06:12:11.984Z,81.40
2019-01-21T06:15:38.672Z,83.30
2019-01-21T06:24:46.612Z,81.40
2019-01-21T06:28:06.885Z,81.70
2019-01-21T06:31:06.790Z,82.30
2019-01-21T06:34:33.214Z,82.60
2019-01-21T06:40:13.838Z,82.80
2019-01-21T06:43:40.175Z,82.90
2019-01-21T06:46:39.788Z,83.40
2019-01-21T06:49:55.498Z,82.80
2019-01-21T06:52:55.451Z,83.70
2019-01-21T06:56:21.818Z,83.90
2019-01-21T06:59:22.321Z,81.90
2019-01-21T07:02:48.637Z,80.90
2019-01-21T07:05:48.421Z,80.50
2019-01-21T07:11:55.812Z,80.50
2019-01-21T07:15:22.144Z,80.50
2019-01-21T07:18:25.945Z,81.90
2019-01-21T07:21:50.548Z,82.30
2019-01-21T07:24:51.054Z,82.80
2019-01-21T07:28:17.423Z,82.70
2019-01-21T07:31:17.649Z,82.90
2019-01-21T07:34:44.011Z,84.10
2019-01-21T07:37:44.517Z,82.70
2019-01-21T07:40:29.694Z,82.60
2019-01-21T07:47:30.850Z,82.70
2019-01-21T07:50:30.526Z,82.40
2019-01-21T07:53:56.911Z,81.10
2019-01-21T07:56:57.317Z,81.80
2019-01-21T07:59:57.504Z,81.10
2019-01-21T08:03:23.843Z,81.30
2019-01-21T08:06:11.271Z,79.40
2019-01-21T08:13:09.025Z,80.20
2019-01-21T08:16:35.469Z,77.70
2019-01-21T08:19:25.408Z,78.30
2019-01-21T08:22:53.619Z,78.90
2019-01-21T08:25:53.286Z,77.70
2019-01-21T08:29:19.715Z,77.20
2019-01-21T08:32:25.990Z,77.30
2019-01-21T08:35:52.871Z,76.70
2019-01-21T08:38:58.284Z,76.50
2019-01-21T08:42:09.255Z,75.90
2019-01-21T08:54:56.103Z,77.00
2019-01-21T08:58:04.636Z,76.40
2019-01-21T09:01:05.399Z,76.40
2019-01-21T09:04:31.717Z,77.60
2019-01-21T09:07:32.008Z,76.60
2019-01-21T09:10:58.344Z,76.40
2019-01-21T09:13:57.998Z,74.50
2019-01-21T09:17:24.560Z,73.50
2019-01-21T09:23:08.114Z,73.70
2019-01-21T09:26:34.793Z,74.10
2019-01-21T09:29:35.237Z,70.60
2019-01-21T09:32:37.934Z,70.60
2019-01-21T09:39:29.515Z,67.70
2019-01-21T09:42:40.859Z,68.00
2019-01-21T09:46:07.415Z,69.00
2019-01-21T09:48:47.704Z,68.10
2019-01-21T09:51:35.334Z,67.80
2019-01-21T09:54:15.697Z,66.90
2019-01-21T10:00:19.343Z,66.10
2019-01-21T10:02:59.506Z,65.70
2019-01-21T10:08:25.414Z,65.10
2019-01-21T10:11:51.778Z,65.00
2019-01-21T10:14:51.325Z,65.70
2019-01-21T10:18:17.783Z,65.50
2019-01-21T10:25:28.513Z,65.00
2019-01-21T10:32:38.240Z,66.20
2019-01-21T10:35:38.724Z,65.60
2019-01-21T10:39:05.196Z,63.30
2019-01-21T10:42:05.123Z,63.90
2019-01-21T10:45:31.986Z,62.00
2019-01-21T10:48:31.819Z,61.10
2019-01-21T10:51:58.134Z,62.30
2019-01-21T10:55:00.727Z,62.90
2019-01-21T10:57:54.537Z,62.90
2019-01-21T11:04:47.407Z,63.00
2019-01-21T11:08:13.828Z,62.70
2019-01-21T11:11:01.381Z,63.80
2019-01-21T11:14:27.810Z,61.80
2019-01-21T11:17:27.894Z,59.70
2019-01-21T11:20:54.234Z,61.10
2019-01-21T11:23:54.086Z,59.30
2019-01-21T11:27:20.427Z,60.00
2019-01-21T11:30:21.442Z,58.30
2019-01-21T11:33:47.855Z,58.20
2019-01-21T11:36:40.763Z,59.70
2019-01-21T11:40:07.782Z,60.60
2019-01-21T11:43:08.398Z,60.40
2019-01-21T11:46:34.763Z,60.80
2019-01-21T11:49:35.262Z,60.40
2019-01-21T11:59:23.045Z,60.80
2019-01-21T12:02:23.968Z,60.20
2019-01-21T12:05:33.379Z,59.70
2019-01-21T12:11:47.426Z,56.70
2019-01-21T12:22:16.408Z,57.10
2019-01-21T12:25:16.063Z,56.10
2019-01-21T12:28:44.750Z,57.50
2019-01-21T12:31:45.221Z,59.00
2019-01-21T12:41:27.024Z,57.80
2019-01-21T12:44:53.374Z,56.40
2019-01-21T12:47:39.315Z,58.10
2019-01-21T12:51:05.639Z,58.30
2019-01-21T12:54:08.914Z,58.10
2019-01-21T12:57:35.339Z,58.50
2019-01-21T13:03:15.786Z,58.40
2019-01-21T13:16:11.711Z,57.90
2019-01-21T13:19:38.032Z,58.80
2019-01-21T13:26:38.742Z,61.70
2019-01-21T13:29:38.230Z,55.30
2019-01-21T13:33:04.638Z,53.80
2019-01-21T13:36:04.121Z,54.30
2019-01-21T13:39:30.549Z,52.00
2019-01-21T13:42:13.252Z,53.10
2019-01-21T13:45:39.600Z,48.60
2019-01-21T13:48:45.460Z,47.00
2019-01-21T13:52:11.831Z,44.60
2019-01-21T13:55:17.754Z,44.50
2019-01-21T13:58:21.052Z,44.00
2019-01-21T14:01:20.748Z,44.70
2019-01-21T14:04:35.553Z,44.90
2019-01-21T14:07:35.468Z,45.10
2019-01-21T14:14:05.765Z,46.30
2019-01-21T14:20:52.692Z,45.90
2019-01-21T14:26:49.907Z,42.40
2019-01-21T14:30:00.226Z,42.30
2019-01-21T14:33:06.330Z,43.30
2019-01-21T14:36:16.148Z,44.90
2019-01-21T14:39:28.449Z,46.40
2019-01-21T14:45:49.341Z,45.40
2019-01-21T14:52:41.743Z,48.60
2019-01-21T14:55:43.045Z,45.50
2019-01-21T14:58:29.579Z,45.40
2019-01-21T15:01:39.967Z,45.40
2019-01-21T15:04:41.519Z,47.10
2019-01-21T15:08:22.023Z,44.50
2019-01-21T15:11:23.517Z,45.90
2019-01-21T15:14:39.123Z,47.70
2019-01-21T15:17:43.653Z,49.50
2019-01-21T15:20:57.733Z,49.30
2019-01-21T15:26:47.760Z,53.30
2019-01-21T15:32:33.144Z,54.10
2019-01-21T15:38:20.907Z,54.50
2019-01-21T15:41:48.078Z,56.00
2019-01-21T15:48:10.062Z,57.80
2019-01-21T15:51:10.806Z,58.50
2019-01-21T15:54:06.827Z,59.30
2019-01-21T15:57:29.757Z,60.00
2019-01-21T16:07:11.208Z,63.00
2019-01-21T16:13:51.533Z,65.30
2019-01-21T16:17:18.196Z,63.60
2019-01-21T16:20:01.358Z,65.20
2019-01-21T16:23:28.067Z,66.50
2019-01-21T16:26:27.859Z,66.00
2019-01-21T16:29:54.233Z,66.90
2019-01-21T16:35:35.189Z,64.10
2019-01-21T16:38:18.330Z,64.20
2019-01-21T16:41:44.878Z,64.50
2019-01-21T16:44:25.819Z,64.50
2019-01-21T16:49:51.566Z,65.10
2019-01-21T16:52:31.669Z,65.50
2019-01-21T17:03:20.310Z,67.20
2019-01-21T17:08:48.391Z,67.30
2019-01-21T17:11:35.977Z,69.30
2019-01-21T17:25:25.399Z,70.60
2019-01-21T17:30:51.605Z,67.50
2019-01-21T17:33:39.145Z,66.70
2019-01-21T17:36:19.593Z,65.60
2019-01-21T17:44:47.102Z,67.00
2019-01-21T17:50:57.795Z,68.10
2019-01-21T17:53:38.788Z,69.00
2019-01-21T17:56:26.308Z,65.20
2019-01-21T17:59:07.224Z,68.00
2019-01-21T18:04:35.930Z,70.00
2019-01-21T18:07:23.494Z,70.20
2019-01-21T18:10:05.220Z,67.70
2019-01-21T18:15:33.364Z,67.40
2019-01-21T18:18:21.081Z,69.00
2019-01-21T18:21:01.670Z,70.00
2019-01-21T18:23:49.255Z,69.80
2019-01-21T18:29:30.248Z,72.00
2019-01-21T18:32:17.720Z,67.10
2019-01-21T18:34:58.627Z,68.80
2019-01-21T18:37:46.137Z,70.90
2019-01-21T18:40:26.937Z,67.80
2019-01-21T18:43:14.543Z,67.70
2019-01-21T18:45:55.157Z,68.10
2019-01-21T18:51:46.664Z,67.90
2019-01-21T18:54:45.298Z,71.30
2019-01-21T19:00:35.341Z,69.30
2019-01-21T19:03:23.170Z,70.20
2019-01-21T19:08:51.057Z,70.60
2019-01-21T19:11:32.107Z,71.20
2019-01-21T19:14:19.597Z,71.60
2019-01-21T19:17:00.062Z,70.20
2019-01-21T19:22:26.147Z,70.80
2019-01-21T19:25:13.589Z,70.90
2019-01-21T19:27:53.755Z,70.50
2019-01-21T19:30:41.251Z,71.90
2019-01-21T19:33:22.269Z,70.80
2019-01-21T19:36:09.741Z,69.30
2019-01-21T19:38:50.648Z,70.50
2019-01-21T19:41:38.142Z,69.30
2019-01-21T19:44:18.335Z,71.60
2019-01-21T19:49:45.837Z,66.30
2019-01-21T19:55:15.452Z,68.60
2019-01-21T19:58:02.918Z,67.60
2019-01-21T20:01:09.936Z,68.40
2019-01-21T20:11:56.729Z,65.10
2019-01-21T20:14:44.425Z,66.20
2019-01-21T20:17:24.903Z,67.70
2019-01-21T20:24:01.784Z,66.70
2019-01-21T20:29:23.154Z,64.20
2019-01-21T20:34:51.588Z,68.00
2019-01-21T20:37:39.054Z,64.50
2019-01-21T20:40:21.195Z,64.20
2019-01-21T20:43:08.621Z,64.30
2019-01-21T20:45:49.407Z,65.30
2019-01-21T20:48:36.840Z,65.70
2019-01-21T20:53:57.509Z,65.30
2019-01-21T20:56:44.943Z,66.20
2019-01-21T20:59:25.956Z,66.40
2019-01-21T21:02:13.860Z,66.70
2019-01-21T21:04:54.341Z,67.40
2019-01-21T21:07:42.187Z,69.40
2019-01-21T21:10:22.683Z,68.70
2019-01-21T21:13:02.775Z,69.20
2019-01-21T21:15:51.311Z,69.20
2019-01-21T21:18:33.528Z,69.10
2019-01-21T21:21:21.197Z,69.10
2019-01-21T21:24:02.269Z,69.50
2019-01-21T21:26:49.692Z,69.10
2019-01-21T21:29:30.398Z,70.50
2019-01-21T21:32:18.135Z,71.20
2019-01-21T21:34:58.540Z,70.00
2019-01-21T21:37:46.017Z,70.80
2019-01-21T21:40:26.770Z,71.20
2019-01-21T21:45:55.045Z,67.90
2019-01-21T21:48:42.502Z,68.80
2019-01-21T21:51:23.278Z,68.20
2019-01-21T21:54:10.670Z,68.70
2019-01-21T21:56:51.457Z,69.40
2019-01-21T21:59:31.576Z,68.90
2019-01-21T22:02:38.961Z,69.50
2019-01-21T22:05:19.922Z,69.40
2019-01-21T22:08:07.536Z,69.10
2019-01-21T22:10:56.467Z,70.80
2019-01-21T22:13:43.904Z,68.10
2019-01-21T22:16:45.725Z,69.00
2019-01-21T22:19:33.134Z,67.70
2019-01-21T22:22:13.903Z,70.00
2019-01-21T22:25:01.434Z,69.30
2019-01-21T22:27:42.078Z,69.20
2019-01-21T22:30:29.568Z,67.40
2019-01-21T22:33:10.124Z,69.30
2019-01-21T22:38:38.591Z,70.20
2019-01-21T22:44:25.973Z,70.80
2019-01-21T22:47:05.955Z,70.90
2019-01-21T22:52:34.266Z,70.80
2019-01-21T22:55:22.049Z,70.80
2019-01-21T22:58:02.460Z,70.90
2019-01-21T23:01:28.796Z,70.80
2019-01-21T23:04:09.865Z,72.20
2019-01-21T23:06:57.287Z,73.60
2019-01-21T23:09:59.460Z,72.70
2019-01-21T23:12:46.899Z,73.20
2019-01-21T23:15:27.479Z,73.80
2019-01-21T23:18:14.882Z,73.80
2019-01-21T23:20:54.964Z,73.50
2019-01-21T23:23:42.390Z,74.40
2019-01-21T23:26:23.325Z,73.50
2019-01-21T23:31:27.747Z,73.50
2019-01-21T23:34:08.699Z,75.90
2019-01-21T23:36:49.656Z,74.70
2019-01-21T23:42:58.873Z,76.90
2019-01-21T23:45:39.296Z,77.30
2019-01-21T23:53:47.797Z,73.60
